NEODyS-2

Near Earth Objects - Dynamic Site
NEODyS ∴ Observatories ∴ Site 691 ∴ Obs & residuals
Contact »
691  ▹ 
OBSERVATIONS AND RESIDUALS

691-Steward Observatory, Kitt Peak-Spacewatch

Detections | Residuals | Detections & Residuals

[1-200] [201-400] [401-600] [601-800] [801-1000] [1001-1200] [1201-1400] [1401-1600] [1601-1800] [1801-2000] [2001-2200] [2201-2400] [2401-2600] [2601-2800] [2801-3000] [3001-3200] [3201-3400] [3401-3600] [3601-3800] [3801-4000] [4001-4200] [4201-4400] [4401-4600] [4601-4800] [4801-5000] [5001-5200] [5201-5400] [5401-5600] [5601-5800] [5801-6000] [6001-6200] [6201-6400] [6401-6600] [6601-6800] [6801-7000] [7001-7200] [7201-7400] [7401-7600] [7601-7800] [7801-8000] [8001-8200] [8201-8400] [8401-8600] [8601-8800] [8801-9000] [9001-9200] [9201-9400] [9401-9600] [9601-9800] [9801-10000] [10001-10200] [10201-10400] [10401-10600] [10601-10800] [10801-11000] [11001-11200] [11201-11400] [11401-11600] [11601-11800] [11801-12000] [12001-12200] [12201-12400] [12401-12600] [12601-12800] [12801-13000] [13001-13200] [13201-13400] [13401-13600] [13601-13800] [13801-14000] [14001-14200] [14201-14400] [14401-14600] [14601-14800] [14801-15000] [15001-15200] [15201-15400] [15401-15600] [15601-15800] [15801-16000] [16001-16200] [16201-16400] [16401-16600] [16601-16800] [16801-17000] [17001-17200] [17201-17400] [17401-17600] [17601-17800] [17801-18000] [18001-18200] [18201-18400] [18401-18600] [18601-18800] [18801-19000] [19001-19200] [19201-19400] [19401-19600] [19601-19800] [19801-20000] [20001-20200] [20201-20400] [20401-20600] [20601-20800] [20801-21000] [21001-21200] [21201-21400] [21401-21600] [21601-21800] [21801-22000] [22001-22200] [22201-22400] [22401-22600] [22601-22800] [22801-23000] [23001-23200] [23201-23400] [23401-23600] [23601-23800] [23801-24000] [24001-24200] [24201-24400] [24401-24600] [24601-24800] [24801-25000] [25001-25200] [25201-25400] [25401-25600] [25601-25800] [25801-26000] [26001-26200] [26201-26400] [26401-26600] [26601-26800] [26801-27000] [27001-27200] [27201-27400] [27401-27600] [27601-27800] [27801-28000] [28001-28200] [28201-28400] [28401-28600] [28601-28800] [28801-29000] [29001-29200] [29201-29400] [29401-29600] [29601-29800] [29801-30000] [30001-30200] [30201-30400] [30401-30600] [30601-30800] [30801-31000] [31001-31200] [31201-31400] [31401-31600] [31601-31800] [31801-32000] [32001-32200] [32201-32400] [32401-32600] [32601-32800] [32801-33000] [33001-33200] [33201-33400] [33401-33600] [33601-33800] [33801-34000] [34001-34200] [34201-34400] [34401-34600] [34601-34800] [34801-35000] [35001-35200] [35201-35400] [35401-35600] [35601-35800] [35801-36000] [36001-36200] [36201-36400] [36401-36600] [36601-36800] [36801-37000] [37001-37200] [37201-37400] [37401-37600] [37601-37800] [37801-38000] [38001-38200] [38201-38400] [38401-38600] [38601-38800] [38801-39000] [39001-39200] [39201-39400] [39401-39600] [39601-39800] [39801-40000] [40001-40200] [40201-40400] [40401-40600] [40601-40800] [40801-41000] [41001-41200] [41201-41400] [41401-41600] [41601-41800] [41801-42000] [42001-42200] [42201-42400] [42401-42600] [42601-42800] [42801-43000] [43001-43200] [43201-43400] [43401-43600] [43601-43800] [43801-44000] [44001-44200] [44201-44400] [44401-44600] [44601-44800] [44801-45000] [45001-45200] [45201-45400] [45401-45600] [45601-45800] [45801-46000] [46001-46200] [46201-46400] [46401-46600] [46601-46800] [46801-47000] [47001-47200] [47201-47400] [47401-47600] [47601-47800] [47801-48000] [48001-48200] [48201-48400] [48401-48600] [48601-48800] [48801-49000] [49001-49200] [49201-49400] [49401-49600] [49601-49800] [49801-50000] [50001-50200] [50201-50388]

Designation T Tech N Date Right Ascension Declination Apparent Magnitude Star Catalog Site code χ Used A Used M
yr-mo-day precision hr:min:sec precision rms F bias residual deg min sec precision rms F bias residual mag/col rms residual
2002GT O C 2005-03-09.36516 1.000E-05 11:52:12.240 1.500E-01 0.750 F 0.603 -0.133 -07° 12' 13.90" 1.000E-01 0.750 F 0.278 -0.397 20.1 V 0.70 0.39 c 691 0.56 Yes Yes
2000OJ8 O C 2005-03-09.37261 1.000E-05 11:46:55.930 1.500E-01 0.750 F 0.598 -0.054 -07° 20' 09.20" 1.000E-01 0.750 F 0.202 -0.003 20.7 V 0.70 0.73 c 691 0.07 Yes Yes
2002GT O C I 2005-03-09.37261 1.000E-05 11:52:11.620 1.500E-01 0.750 F 0.603 1.656 -07° 12' 06.80" 1.000E-01 0.750 F 0.278 0.566 19.8 V 0.70 0.09 c 691 2.33 Yes Yes
2005EM30 O C 2005-03-09.39596 1.000E-05 12:48:07.700 1.500E-01 0.500 F 0.280 0.077 +57° 07' 07.80" 1.000E-01 0.500 F 0.048 0.118 19.6 V 0.70 -0.55 c 691 0.29 Yes Yes
2005EM30 O C 2005-03-09.40029 1.000E-05 12:48:05.500 1.500E-01 0.500 F 0.280 -0.156 +57° 07' 08.40" 1.000E-01 0.500 F 0.048 -0.030 19.8 V 0.70 -0.35 c 691 0.32 Yes Yes
2005EM30 O C 2005-03-09.40461 1.000E-05 12:48:03.380 1.500E-01 0.500 F 0.280 0.223 +57° 07' 09.30" 1.000E-01 0.500 F 0.048 0.135 19.8 V 0.70 -0.35 c 691 0.53 Yes Yes
2005EH94 O C 2005-03-10.26236 1.000E-05 09:00:12.450 1.500E-01 0.500 F 0.159 -0.175 +19° 59' 36.70" 1.000E-01 0.500 F 0.473 -0.421 20.2 V 0.70 -0.03 c 691 0.97 Yes Yes
2005EH94 O C 2005-03-10.26531 1.000E-05 09:00:11.140 1.500E-01 0.500 F 0.159 0.524 +19° 59' 30.00" 1.000E-01 0.500 F 0.473 -0.200 20.1 V 0.70 -0.13 c 691 1.20 Yes Yes
2005EH94 O C 2005-03-10.26810 1.000E-05 09:00:09.810 1.500E-01 0.500 F 0.159 -0.103 +19° 59' 23.30" 1.000E-01 0.500 F 0.473 -0.344 20.2 V 0.70 -0.03 c 691 0.76 Yes Yes
2002GT O C 2005-03-10.28672 1.000E-05 11:50:44.030 1.500E-01 0.612 F 0.603 -0.074 -06° 59' 25.80" 1.000E-01 0.612 F 0.278 -0.106 19.9 V 0.70 0.23 c 691 0.21 Yes Yes
2005EG94 O C H 2005-03-10.28672 1.000E-05 11:47:46.550 1.500E-01 0.612 F 0.594 0.136 -06° 53' 52.30" 1.000E-01 0.612 F 0.243 -0.140 21.2 V 0.70 -0.40 c 691 0.32 Yes Yes
2005EG94 O C H 2005-03-10.29414 1.000E-05 11:47:45.760 1.500E-01 0.612 F 0.594 -1.093 -06° 53' 48.50" 1.000E-01 0.612 F 0.243 1.339 20.9 V 0.70 -0.70 c 691 2.85 Yes Yes
2002GT O C 2005-03-10.29414 1.000E-05 11:50:43.280 1.500E-01 0.612 F 0.603 -0.118 -06° 59' 19.50" 1.000E-01 0.612 F 0.278 -0.051 19.8 V 0.70 0.13 c 691 0.21 Yes Yes
2002GT O C 2005-03-10.30160 1.000E-05 11:50:42.520 1.500E-01 0.612 F 0.603 -0.245 -06° 59' 13.30" 1.000E-01 0.612 F 0.278 -0.133 19.6 V 0.70 -0.07 c 691 0.46 Yes Yes
2005EG94 O C H 2005-03-10.30160 1.000E-05 11:47:45.130 1.500E-01 0.612 F 0.594 0.121 -06° 53' 47.50" 1.000E-01 0.612 F 0.243 0.005 21.2 V 0.70 -0.40 c 691 0.20 Yes Yes
2005EG94 O C H 2005-03-10.30738 1.000E-05 11:47:44.580 1.500E-01 0.612 F 0.594 0.143 -06° 53' 46.70" 1.000E-01 0.612 F 0.243 -1.005 21.5 V 0.70 -0.10 c 691 1.67 Yes Yes
2002GT O C 2005-03-10.30738 1.000E-05 11:50:41.930 1.500E-01 0.612 F 0.603 -0.356 -06° 59' 08.40" 1.000E-01 0.612 F 0.278 -0.103 19.7 V 0.70 0.03 c 691 0.61 Yes Yes
2005EG94 O C H 2005-03-10.31474 1.000E-05 11:47:43.890 1.500E-01 0.612 F 0.594 0.326 -06° 53' 44.60" 1.000E-01 0.612 F 0.243 -1.212 21.3 V 0.70 -0.30 c 691 2.07 Yes Yes
2002GT O C 2005-03-10.31474 1.000E-05 11:50:41.200 1.500E-01 0.612 F 0.603 -0.176 -06° 59' 02.20" 1.000E-01 0.612 F 0.278 -0.108 19.7 V 0.70 0.03 c 691 0.34 Yes Yes
2005EG94 O C H 2005-03-10.32323 1.000E-05 11:47:43.110 1.500E-01 0.612 F 0.594 0.777 -06° 53' 41.40" 1.000E-01 0.612 F 0.243 -0.676 21.3 V 0.70 -0.30 c 691 1.70 Yes Yes
2002GT O C 2005-03-10.32323 1.000E-05 11:50:40.330 1.500E-01 0.612 F 0.603 -0.380 -06° 58' 55.20" 1.000E-01 0.612 F 0.278 -0.270 19.8 V 0.70 0.13 c 691 0.76 Yes Yes
2002TW55 O C H 2005-03-10.43665 1.000E-05 15:53:14.340 1.500E-01 0.500 F 0.378 -0.342 +58° 01' 37.30" 1.000E-01 0.500 F 0.046 -0.717 21.3 V 0.70 -0.18 c 691 1.66 Yes Yes
2002TW55 O C H 2005-03-10.44544 1.000E-05 15:53:13.930 1.500E-01 0.500 F 0.378 1.011 +58° 01' 49.00" 1.000E-01 0.500 F 0.046 0.173 21.2 V 0.70 -0.28 c 691 2.14 Yes Yes
2002TW55 O C H 2005-03-10.45327 1.000E-05 15:53:13.280 1.500E-01 0.500 F 0.378 -0.037 +58° 01' 58.10" 1.000E-01 0.500 F 0.046 -0.346 21.6 V 0.70 0.12 c 691 0.73 Yes Yes
2005EA O C 2005-03-11.11200 1.000E-05 08:40:10.440 1.500E-01 0.500 F 0.104 0.241 +24° 54' 25.20" 1.000E-01 0.500 F 0.441 -0.373 20.2 V 0.70 0.12 c 691 0.91 Yes Yes
2004QZ2 O C 2005-03-11.12523 1.000E-05 08:39:59.130 1.500E-01 0.500 F 0.364 -0.223 +16° 23' 29.00" 1.000E-01 0.500 F 0.263 -0.226 19.7 V 0.70 0.07 c 691 0.64 Yes Yes
2005EA O C 2005-03-11.12819 1.000E-05 08:40:02.490 1.500E-01 0.500 F 0.104 -0.130 +24° 54' 18.70" 1.000E-01 0.500 F 0.441 -0.430 20.0 V 0.70 -0.08 c 691 0.91 Yes Yes
2004QZ2 O C 2005-03-11.14134 1.000E-05 08:39:59.760 1.500E-01 0.500 F 0.364 -0.142 +16° 23' 28.30" 1.000E-01 0.500 F 0.263 -0.152 19.7 V 0.70 0.07 c 691 0.42 Yes Yes
2005EA O C 2005-03-11.14441 1.000E-05 08:39:54.550 1.500E-01 0.500 F 0.104 -0.016 +24° 54' 12.30" 1.000E-01 0.500 F 0.441 -0.236 20.0 V 0.70 -0.08 c 691 0.48 Yes Yes
2004QZ2 O C 2005-03-11.15731 1.000E-05 08:40:00.380 1.500E-01 0.500 F 0.364 -0.096 +16° 23' 27.50" 1.000E-01 0.500 F 0.263 -0.156 19.7 V 0.70 0.07 c 691 0.37 Yes Yes
2005EH94 O C t 2005-03-11.17536 1.000E-05 08:53:39.770 1.500E-01 0.500 F 0.267 0.450 +19° 23' 01.50" 1.000E-01 0.500 F 0.547 -0.236 20.1 V 0.70 -0.12 c 691 1.14 Yes Yes
2005EH94 O C t 2005-03-11.17811 1.000E-05 08:53:38.480 1.500E-01 0.500 F 0.267 0.813 +19° 22' 54.90" 1.000E-01 0.500 F 0.547 -0.020 20.0 V 0.70 -0.22 c 691 1.83 Yes Yes
2005EH94 O C t 2005-03-11.18090 1.000E-05 08:53:37.130 1.500E-01 0.500 F 0.267 0.606 +19° 22' 47.90" 1.000E-01 0.500 F 0.547 -0.095 20.3 V 0.70 0.08 c 691 1.37 Yes Yes
2005FG O C H 2005-03-11.23542 1.000E-05 12:15:52.600 1.500E-01 0.500 F 0.504 -0.094 +01° 30' 02.80" 1.000E-01 0.500 F 0.518 0.209 20.4 V 0.70 0.43 c 691 0.46 Yes Yes
2005FG O C H 2005-03-11.26100 1.000E-05 12:15:49.870 1.500E-01 0.500 F 0.504 -0.158 +01° 29' 27.10" 1.000E-01 0.500 F 0.518 -0.257 20.5 V 0.70 0.53 c 691 0.61 Yes Yes
2005EG94 O C H 2005-03-11.37054 1.000E-05 11:46:05.240 1.500E-01 0.500 F 0.598 -0.855 -06° 48' 06.20" 1.000E-01 0.500 F 0.202 0.205 c 691 1.78 Yes No
2000OJ8 O C 2005-03-11.37054 1.000E-05 11:44:33.230 1.500E-01 0.500 F 0.598 0.172 -07° 01' 49.30" 1.000E-01 0.500 F 0.202 0.187 20.1 V 0.70 0.15 c 691 0.51 Yes Yes
2002GT O C 2005-03-11.37054 1.000E-05 11:48:57.990 1.500E-01 0.500 F 0.594 -0.120 -06° 43' 58.30" 1.000E-01 0.500 F 0.243 -0.083 19.9 V 0.70 0.28 c 691 0.29 Yes Yes
2000OJ8 O C 2005-03-11.37794 1.000E-05 11:44:32.670 1.500E-01 0.500 F 0.598 -0.088 -07° 01' 45.20" 1.000E-01 0.500 F 0.202 0.165 20.0 V 0.70 0.05 c 691 0.38 Yes Yes
2002GT O C I 2005-03-11.37794 1.000E-05 11:48:57.230 1.500E-01 0.500 F 0.594 -0.173 -06° 43' 52.30" 1.000E-01 0.500 F 0.243 -0.519 19.6 V 0.70 -0.02 c 691 1.09 Yes Yes
2000OJ8 O C 2005-03-11.38535 1.000E-05 11:44:32.140 1.500E-01 0.500 F 0.598 0.107 -07° 01' 41.20" 1.000E-01 0.500 F 0.202 0.036 20.1 V 0.70 0.15 c 691 0.22 Yes Yes
2002GT O C 2005-03-11.38535 1.000E-05 11:48:56.470 1.500E-01 0.500 F 0.594 -0.215 -06° 43' 45.40" 1.000E-01 0.500 F 0.243 -0.067 19.9 V 0.70 0.28 c 691 0.45 Yes Yes
2005EG94 O C H 2005-03-11.38535 1.000E-05 11:46:03.860 1.500E-01 0.500 F 0.598 -0.296 -06° 48' 01.00" 1.000E-01 0.500 F 0.202 0.584 c 691 1.33 Yes No
2001HG31 O C I 2005-03-11.40195 1.000E-05 13:29:12.640 1.500E-01 0.500 F 0.284 -0.052 -01° 22' 20.70" 1.000E-01 0.500 F 0.208 0.499 18.6 V 0.70 1.29 c 691 1.01 Yes Yes
2001HG31 O C I 2005-03-11.42722 1.000E-05 13:29:10.850 1.500E-01 0.500 F 0.284 -0.051 -01° 22' 18.30" 1.000E-01 0.500 F 0.208 0.131 17.7 V 0.70 0.39 c 691 0.28 Yes Yes
2001HG31 O C I 2005-03-11.45251 1.000E-05 13:29:09.070 1.500E-01 0.500 F 0.497 -0.111 -01° 22' 15.50" 1.000E-01 0.500 F 0.095 0.264 17.6 V 0.70 0.29 c 691 0.58 Yes Yes
2005FG O C 2005-03-12.24960 1.000E-05 12:14:23.420 1.500E-01 0.500 F 0.519 -0.396 +01° 05' 42.90" 1.000E-01 0.500 F 0.393 0.110 20.1 V 0.70 0.27 c 691 0.84 Yes Yes
2005FG O C 2005-03-12.29500 1.000E-05 12:14:17.990 1.500E-01 0.500 F 0.519 -0.181 +01° 04' 34.90" 1.000E-01 0.500 F 0.393 0.072 20.2 V 0.70 0.37 c 691 0.40 Yes Yes
2005FG O C 2005-03-12.32953 1.000E-05 12:14:13.740 1.500E-01 0.500 F 0.519 -0.171 +01° 03' 43.00" 1.000E-01 0.500 F 0.393 0.100 20.0 V 0.70 0.18 c 691 0.40 Yes Yes
1990TR O C 2005-03-12.43724 1.000E-05 13:14:36.330 1.500E-01 0.500 F 0.473 -0.313 -07° 08' 07.30" 1.000E-01 0.500 F 0.034 -0.078 19.9 V 0.70 0.06 c 691 0.64 Yes Yes
1990TR O C 2005-03-12.46479 1.000E-05 13:14:34.950 1.500E-01 0.500 F 0.473 -0.232 -07° 08' 02.00" 1.000E-01 0.500 F 0.034 -0.012 19.9 V 0.70 0.06 c 691 0.46 Yes Yes
1990TR O C 2005-03-12.50091 1.000E-05 13:14:33.140 1.500E-01 0.500 F 0.473 -0.195 -07° 07' 55.30" 1.000E-01 0.500 F 0.034 -0.202 19.9 V 0.70 0.06 c 691 0.56 Yes Yes
1999DK3 O C 2005-03-13.12280 1.000E-05 08:45:09.140 1.500E-01 0.500 F 0.077 -0.257 +18° 37' 50.50" 1.000E-01 0.500 F 0.402 -0.357 20.0 V 0.70 0.39 c 691 0.91 Yes Yes
1999DK3 O C 2005-03-13.13897 1.000E-05 08:45:08.110 1.500E-01 0.500 F 0.077 -0.274 +18° 38' 21.70" 1.000E-01 0.500 F 0.402 -0.146 20.0 V 0.70 0.39 c 691 0.64 Yes Yes
1999DK3 O C 2005-03-13.15517 1.000E-05 08:45:07.080 1.500E-01 0.500 F 0.077 -0.245 +18° 38' 53.10" 1.000E-01 0.500 F 0.402 0.235 20.0 V 0.70 0.39 c 691 0.69 Yes Yes
2005EX169 O C 2005-03-13.18535 1.000E-05 11:36:58.190 1.500E-01 0.500 F 0.530 0.056 -01° 20' 23.40" 1.000E-01 0.500 F 0.314 -0.165 20.1 V 0.70 0.67 c 691 0.43 Yes Yes
2005EX169 O C 2005-03-13.21320 1.000E-05 11:37:01.990 1.500E-01 0.500 F 0.553 -0.125 -01° 16' 27.60" 1.000E-01 0.500 F 0.478 -0.020 20.1 V 0.70 0.67 c 691 0.29 Yes Yes
2005EX169 O C 2005-03-13.23954 1.000E-05 11:37:05.500 1.500E-01 0.500 F 0.553 -0.293 -01° 12' 44.60" 1.000E-01 0.500 F 0.478 0.149 19.8 V 0.70 0.38 c 691 0.76 Yes Yes
2005FJ O C t 2005-03-16.13314 1.000E-05 08:54:05.440 1.500E-01 0.559 F 0.327 -0.495 +15° 40' 55.10" 1.000E-01 0.559 F 0.272 -0.366 c 691 1.41 Yes No
2005FJ O C t 2005-03-16.14941 1.000E-05 08:54:10.250 1.500E-01 0.559 F 0.327 0.408 +15° 43' 42.30" 1.000E-01 0.559 F 0.272 0.915 20.5 V 0.70 0.31 c 691 2.18 Yes Yes
2005FJ O C t 2005-03-16.16516 1.000E-05 08:54:14.790 1.500E-01 0.559 F 0.391 -0.081 +15° 46' 21.00" 1.000E-01 0.559 F 0.280 -0.578 c 691 1.23 Yes No
2005FJ O C t 2005-03-16.35681 1.000E-05 08:55:11.570 1.500E-01 0.559 F 0.391 0.060 +16° 18' 16.00" 1.000E-01 0.559 F 0.280 -0.005 20.5 V 0.70 0.30 c 691 0.15 Yes Yes
2005FJ O C t 2005-03-16.35987 1.000E-05 08:55:12.540 1.500E-01 0.559 F 0.391 0.115 +16° 18' 46.20" 1.000E-01 0.559 F 0.280 0.096 20.4 V 0.70 0.20 c 691 0.38 Yes Yes
2005FG O C 2005-03-16.38976 1.000E-05 12:06:22.760 1.500E-01 0.500 F 0.506 -0.080 -00° 57' 57.80" 1.000E-01 0.500 F 0.428 -0.079 19.5 V 0.70 0.31 c 691 0.23 Yes Yes
2005FG O C 2005-03-16.41611 1.000E-05 12:06:18.140 1.500E-01 0.500 F 0.506 -0.508 -00° 58' 54.20" 1.000E-01 0.500 F 0.428 -0.165 19.5 V 0.70 0.31 c 691 1.09 Yes Yes
2005FG O C 2005-03-16.44126 1.000E-05 12:06:13.870 1.500E-01 0.500 F 0.506 0.188 -00° 59' 47.80" 1.000E-01 0.500 F 0.428 0.074 20.4 V 0.70 1.22 c 691 0.41 Yes Yes
2005FJ O C t 2005-03-17.13028 1.000E-05 08:59:52.380 1.500E-01 0.500 F 0.371 0.650 +18° 25' 47.10" 1.000E-01 0.500 F 0.442 -0.788 20.6 V 0.70 0.37 c 691 2.30 Yes Yes
2005FJ O C t 2005-03-17.13310 1.000E-05 08:59:53.210 1.500E-01 0.500 F 0.371 0.521 +18° 26' 13.90" 1.000E-01 0.500 F 0.442 -1.671 20.6 V 0.70 0.37 c 691 3.20 No Yes
2005FJ O C t 2005-03-17.13597 1.000E-05 08:59:53.990 1.500E-01 0.500 F 0.371 -0.514 +18° 26' 40.40" 1.000E-01 0.500 F 0.442 -3.329 c 691 6.13 No No
2003XV10 O C 2005-03-17.32717 1.000E-05 12:41:36.550 1.500E-01 0.500 F 0.618 -0.241 -04° 47' 26.10" 1.000E-01 0.500 F 0.284 0.002 20.4 V 0.70 0.25 c 691 0.49 Yes Yes
2003XV10 O C 2005-03-17.35291 1.000E-05 12:41:32.790 1.500E-01 0.500 F 0.618 -0.430 -04° 47' 20.10" 1.000E-01 0.500 F 0.284 -0.113 20.6 V 0.70 0.46 c 691 0.90 Yes Yes
2003XV10 O C 2005-03-17.37817 1.000E-05 12:41:29.130 1.500E-01 0.500 F 0.618 -0.108 -04° 47' 13.90" 1.000E-01 0.500 F 0.284 0.050 20.7 V 0.70 0.56 c 691 0.24 Yes Yes
2002FW5 O C 2005-03-31.43946 1.000E-05 15:14:50.750 1.500E-01 0.500 F 0.223 0.798 -06° 45' 19.50" 1.000E-01 0.500 F 0.419 -0.302 18.5 V 0.70 -0.07 c 691 1.72 Yes Yes
2002FW5 O C 2005-03-31.45722 1.000E-05 15:14:43.600 1.500E-01 0.500 F 0.223 -1.160 -06° 46' 59.10" 1.000E-01 0.500 F 0.419 -2.113 18.4 V 0.70 -0.17 c 691 4.79 No Yes
2002FW5 O C 2005-03-31.47485 1.000E-05 15:14:36.710 1.500E-01 0.500 F 0.223 0.003 -06° 48' 34.20" 1.000E-01 0.500 F 0.419 -0.134 18.8 V 0.70 0.23 c 691 0.27 Yes Yes
1990SM O C H 2005-04-01.11961 1.000E-05 04:55:55.710 1.500E-01 0.500 F -0.016 0.350 +15° 36' 40.60" 1.000E-01 0.500 F 0.082 0.057 20.8 V 0.70 -0.97 c 691 0.71 Yes Yes
2005FC3 O C H 2005-04-01.12304 1.000E-05 07:05:24.090 1.500E-01 0.500 F 0.126 0.024 +21° 19' 09.90" 1.000E-01 0.500 F 0.123 -0.435 20.9 V 0.70 -0.34 c 691 0.87 Yes Yes
2005EJ225 O C H 2005-04-01.12612 1.000E-05 08:07:56.230 1.500E-01 0.500 F 0.244 0.069 +21° 00' 52.20" 1.000E-01 0.500 F 0.510 -0.619 20.8 V 0.70 -0.15 c 691 1.25 Yes Yes
1990SM O C H 2005-04-01.13001 1.000E-05 04:55:56.230 1.500E-01 0.500 F -0.016 0.001 +15° 36' 43.10" 1.000E-01 0.500 F 0.082 -0.363 20.9 V 0.70 -0.87 c 691 0.73 Yes Yes
2005FC3 O C H 2005-04-01.13342 1.000E-05 07:05:24.440 1.500E-01 0.500 F 0.126 0.779 +21° 19' 15.70" 1.000E-01 0.500 F 0.123 -1.165 c 691 2.81 Yes No
2005EJ225 O C H 2005-04-01.13638 1.000E-05 08:07:55.890 1.500E-01 0.500 F 0.244 1.110 +21° 00' 47.50" 1.000E-01 0.500 F 0.510 -1.153 20.4 V 0.70 -0.55 c 691 3.18 No Yes
2005FC3 O C H 2005-04-01.14714 1.000E-05 07:05:24.820 1.500E-01 0.500 F 0.126 0.596 +21° 19' 24.80" 1.000E-01 0.500 F 0.123 -0.675 c 691 1.80 Yes No
2005EJ225 O C H 2005-04-01.15010 1.000E-05 08:07:55.270 1.500E-01 0.500 F 0.244 0.174 +21° 00' 42.20" 1.000E-01 0.500 F 0.510 -0.860 20.7 V 0.70 -0.25 c 691 1.76 Yes Yes
2005GT O C t 2005-04-01.21569 1.000E-05 13:16:16.320 1.500E-01 0.559 F 0.459 -1.483 -03° 44' 25.80" 1.000E-01 0.559 F 0.229 3.549 20.8 V 0.70 -0.39 c 691 5.84 No Yes
2004NL8 O C 2005-04-01.21569 1.000E-05 13:20:26.900 1.500E-01 0.500 F 0.498 0.080 -03° 08' 46.50" 1.000E-01 0.500 F 0.082 -0.063 20.0 V 0.70 0.24 c 691 0.21 Yes Yes
2005GT O C t 2005-04-01.23356 1.000E-05 13:16:20.910 1.500E-01 0.559 F 0.459 -0.138 -03° 47' 50.90" 1.000E-01 0.559 F 0.229 0.409 20.9 V 0.70 -0.28 c 691 0.97 Yes Yes
2004NL8 O C 2005-04-01.23356 1.000E-05 13:20:25.280 1.500E-01 0.500 F 0.498 0.021 -03° 08' 35.60" 1.000E-01 0.500 F 0.082 -0.221 19.9 V 0.70 0.14 c 691 0.45 Yes Yes
2005GT O C t 2005-04-01.25134 1.000E-05 13:16:25.360 1.500E-01 0.559 F 0.459 0.362 -03° 51' 12.60" 1.000E-01 0.559 F 0.229 -0.029 21.3 V 0.70 0.12 c 691 0.78 Yes Yes
2004NL8 O C 2005-04-01.25134 1.000E-05 13:20:23.680 1.500E-01 0.500 F 0.498 0.183 -03° 08' 24.70" 1.000E-01 0.500 F 0.082 -0.325 19.7 V 0.70 -0.06 c 691 0.75 Yes Yes
2005GT O C t 2005-04-01.33097 1.000E-05 13:16:44.580 1.500E-01 0.559 F 0.514 -1.351 -04° 06' 15.50" 1.000E-01 0.559 F 0.272 2.033 20.9 V 0.70 -0.27 c 691 3.78 No Yes
2005GT O C t 2005-04-01.33366 1.000E-05 13:16:45.300 1.500E-01 0.559 F 0.514 -0.277 -04° 06' 48.80" 1.000E-01 0.559 F 0.272 -0.597 20.7 V 0.70 -0.47 c 691 1.41 Yes Yes
2002GF1 O C 2005-04-01.35059 1.000E-05 14:18:52.470 1.500E-01 0.500 F 0.405 -0.195 -07° 19' 08.50" 1.000E-01 0.500 F 0.290 0.012 19.5 V 0.70 0.33 c 691 0.40 Yes Yes
2002GF1 O C 2005-04-01.37450 1.000E-05 14:18:54.360 1.500E-01 0.500 F 0.405 0.081 -07° 19' 20.50" 1.000E-01 0.500 F 0.290 -0.299 19.3 V 0.70 0.13 c 691 0.63 Yes Yes
2002GF1 O C 2005-04-01.39567 1.000E-05 14:18:55.990 1.500E-01 0.500 F 0.405 -0.294 -07° 19' 30.20" 1.000E-01 0.500 F 0.290 0.291 19.3 V 0.70 0.13 c 691 0.84 Yes Yes
2002AV4 O C I 2005-04-02.18947 1.000E-05 13:06:57.810 1.500E-01 0.500 F 0.364 0.910 -06° 30' 29.30" 1.000E-01 0.500 F 0.218 0.425 17.9 V 0.70 -0.02 c 691 2.01 Yes Yes
2002AV4 O C 2005-04-02.20719 1.000E-05 13:06:55.630 1.500E-01 0.500 F 0.364 -0.094 -06° 30' 23.90" 1.000E-01 0.500 F 0.218 0.077 18.1 V 0.70 0.18 c 691 0.24 Yes Yes
2002AV4 O C 2005-04-02.22505 1.000E-05 13:06:53.490 1.500E-01 0.500 F 0.364 -0.181 -06° 30' 18.10" 1.000E-01 0.500 F 0.218 0.073 18.1 V 0.70 0.18 c 691 0.39 Yes Yes
2005EG94 O C H 2005-04-02.24840 1.000E-05 11:13:59.450 1.500E-01 0.559 F 0.457 0.554 -04° 29' 59.20" 1.000E-01 0.559 F 0.165 -1.572 c 691 3.01 Yes No
2005EG94 O C H 2005-04-02.25924 1.000E-05 11:13:58.490 1.500E-01 0.559 F 0.457 -1.232 -04° 29' 54.90" 1.000E-01 0.559 F 0.165 -1.468 c 691 3.39 No No
2005EG94 O C H 2005-04-02.30037 1.000E-05 11:13:55.430 1.500E-01 0.559 F 0.457 0.643 -04° 29' 38.10" 1.000E-01 0.559 F 0.165 -0.601 c 691 1.59 Yes No
2005EG94 O C H 2005-04-02.30882 1.000E-05 11:13:54.800 1.500E-01 0.559 F 0.457 0.992 -04° 29' 34.40" 1.000E-01 0.559 F 0.165 -0.178 c 691 1.82 Yes No
2005EG94 O C H 2005-04-02.31720 1.000E-05 11:13:54.080 1.500E-01 0.559 F 0.457 -0.094 -04° 29' 31.90" 1.000E-01 0.559 F 0.165 -0.928 c 691 1.68 Yes No
2002GF1 O C 2005-04-02.34759 1.000E-05 14:20:21.090 1.500E-01 0.500 F 0.249 -0.041 -07° 27' 17.20" 1.000E-01 0.500 F 0.298 -0.184 19.4 V 0.70 0.27 c 691 0.38 Yes Yes
2005GT O C t 2005-04-02.37129 1.000E-05 13:22:12.640 1.500E-01 0.500 F 0.440 -0.100 -07° 35' 27.30" 1.000E-01 0.500 F 0.186 -0.666 c 691 1.45 Yes No
2005GT O C t 2005-04-02.37692 1.000E-05 13:22:14.210 1.500E-01 0.500 F 0.440 0.104 -07° 36' 37.70" 1.000E-01 0.500 F 0.186 0.539 c 691 1.19 Yes No
2002GF1 O C 2005-04-02.38537 1.000E-05 14:20:24.000 1.500E-01 0.500 F 0.249 -0.232 -07° 27' 36.10" 1.000E-01 0.500 F 0.298 -0.382 19.3 V 0.70 0.17 c 691 0.90 Yes Yes
2002GF1 O C 2005-04-02.41064 1.000E-05 14:20:25.940 1.500E-01 0.500 F 0.249 -0.461 -07° 27' 48.20" 1.000E-01 0.500 F 0.298 -0.076 19.4 V 0.70 0.27 c 691 0.95 Yes Yes
2002FW5 O C t 2005-04-02.43896 1.000E-05 15:01:26.950 1.500E-01 0.500 F 0.372 -0.229 -09° 52' 40.00" 1.000E-01 0.500 F 0.322 -0.647 18.7 V 0.70 0.28 c 691 1.38 Yes Yes
2002FW5 O C t 2005-04-02.45770 1.000E-05 15:01:18.920 1.500E-01 0.500 F 0.535 -0.268 -09° 54' 26.80" 1.000E-01 0.500 F 0.232 -0.321 18.7 V 0.70 0.28 c 691 0.84 Yes Yes
2002FW5 O C I 2005-04-02.47548 1.000E-05 15:01:11.180 1.500E-01 0.500 F 0.535 -1.965 -09° 56' 09.80" 1.000E-01 0.500 F 0.232 -1.795 19.8 V 0.70 1.38 c 691 5.30 No Yes
2005GE59 O C 2005-04-07.36151 1.000E-05 14:32:45.940 1.500E-01 0.500 F 0.428 -0.073 -07° 35' 15.30" 1.000E-01 0.500 F 0.184 0.028 20.9 V 0.70 -0.09 c 691 0.16 Yes Yes
2005TR45 O C 2005-04-07.36410 1.000E-05 14:23:45.120 1.500E-01 0.500 F 0.352 -0.174 -06° 42' 43.20" 1.000E-01 0.500 F 0.299 0.102 20.4 V 0.70 -0.03 c 691 0.41 Yes Yes
2005GE59 O C 2005-04-07.37935 1.000E-05 14:32:44.510 1.500E-01 0.500 F 0.428 -0.013 -07° 35' 00.80" 1.000E-01 0.500 F 0.184 -0.279 20.8 V 0.70 -0.19 c 691 0.56 Yes Yes
2005TR45 O C 2005-04-07.38195 1.000E-05 14:23:44.420 1.500E-01 0.500 F 0.352 -0.194 -06° 42' 28.50" 1.000E-01 0.500 F 0.299 0.153 20.3 V 0.70 -0.13 c 691 0.50 Yes Yes
2005GE59 O C 2005-04-07.39729 1.000E-05 14:32:43.040 1.500E-01 0.500 F 0.428 -0.429 -07° 34' 45.70" 1.000E-01 0.500 F 0.184 -0.078 21.2 V 0.70 0.21 c 691 0.87 Yes Yes
2005TR45 O C 2005-04-07.39993 1.000E-05 14:23:43.710 1.500E-01 0.500 F 0.352 -0.288 -06° 42' 13.90" 1.000E-01 0.500 F 0.299 -0.024 20.3 V 0.70 -0.12 c 691 0.59 Yes Yes
2005GN59 O C 2005-04-07.42335 1.000E-05 14:45:40.870 1.500E-01 0.500 F 0.428 -0.052 -17° 26' 25.80" 1.000E-01 0.500 F 0.168 0.027 20.0 V 0.70 -0.23 c 691 0.11 Yes Yes
2005GN59 O C 2005-04-07.44127 1.000E-05 14:45:39.430 1.500E-01 0.500 F 0.428 -0.275 -17° 26' 16.60" 1.000E-01 0.500 F 0.168 0.145 20.2 V 0.70 -0.03 c 691 0.62 Yes Yes
2005GN59 O C 2005-04-07.45921 1.000E-05 14:45:38.010 1.500E-01 0.500 F 0.428 -0.210 -17° 26' 07.60" 1.000E-01 0.500 F 0.168 0.027 20.2 V 0.70 -0.03 c 691 0.42 Yes Yes
2005GD60 O C 2005-04-09.25474 1.000E-05 13:43:15.620 1.500E-01 0.500 F 0.536 -0.170 -09° 01' 29.70" 1.000E-01 0.500 F 0.199 0.011 19.4 V 0.70 0.24 c 691 0.35 Yes Yes
2005GG81 O C t 2005-04-09.25474 1.000E-05 13:41:25.020 1.500E-01 0.500 F 0.536 -0.079 -08° 27' 46.70" 1.000E-01 0.500 F 0.199 -0.430 20.9 V 0.70 1.10 c 691 1.15 Yes Yes
2005GD60 O C 2005-04-09.27274 1.000E-05 13:43:14.980 1.500E-01 0.500 F 0.536 -0.033 -09° 00' 35.20" 1.000E-01 0.500 F 0.200 -0.225 19.5 V 0.70 0.34 c 691 0.46 Yes Yes
2005GG81 O C t 2005-04-09.27274 1.000E-05 13:41:35.770 1.500E-01 0.500 F 0.536 -0.162 -08° 30' 22.10" 1.000E-01 0.500 F 0.200 0.181 20.2 V 0.70 0.40 c 691 0.68 Yes Yes
2005GD60 O C 2005-04-09.29061 1.000E-05 13:43:14.320 1.500E-01 0.500 F 0.536 -0.077 -08° 59' 40.50" 1.000E-01 0.500 F 0.200 0.004 19.7 V 0.70 0.54 c 691 0.16 Yes Yes
2005GG81 O C t 2005-04-09.29061 1.000E-05 13:41:46.320 1.500E-01 0.500 F 0.536 -1.572 -08° 32' 55.80" 1.000E-01 0.500 F 0.200 1.202 20.0 V 0.70 0.20 c 691 3.27 No Yes
2005GE59 O C H 2005-04-09.30684 1.000E-05 14:30:13.060 1.500E-01 0.500 F 0.493 -0.054 -07° 08' 24.30" 1.000E-01 0.500 F 0.259 -0.770 c 691 1.55 Yes No
2005GE59 O C H 2005-04-09.32289 1.000E-05 14:30:11.790 1.500E-01 0.500 F 0.493 0.541 -07° 08' 10.60" 1.000E-01 0.500 F 0.259 -0.311 c 691 1.25 Yes No
2005GE59 O C H 2005-04-09.33034 1.000E-05 14:30:11.130 1.500E-01 0.500 F 0.493 -0.225 -07° 08' 04.80" 1.000E-01 0.500 F 0.259 -0.660 c 691 1.40 Yes No
2005GN59 O C 2005-04-09.33817 1.000E-05 14:43:10.990 1.500E-01 0.500 F 0.257 0.066 -17° 10' 02.40" 1.000E-01 0.500 F 0.238 0.194 20.4 V 0.70 0.22 c 691 0.41 Yes Yes
2005GN59 O C 2005-04-09.34616 1.000E-05 14:43:10.340 1.500E-01 0.500 F 0.257 0.180 -17° 09' 58.30" 1.000E-01 0.500 F 0.238 0.128 20.3 V 0.70 0.12 c 691 0.45 Yes Yes
2005GN59 O C 2005-04-09.35443 1.000E-05 14:43:09.670 1.500E-01 0.500 F 0.257 0.342 -17° 09' 54.30" 1.000E-01 0.500 F 0.238 -0.188 20.3 V 0.70 0.12 c 691 0.79 Yes Yes
2001WR1 O C 2005-04-10.16660 1.000E-05 10:52:30.160 1.500E-01 0.500 F 0.414 -0.132 +04° 55' 00.70" 1.000E-01 0.500 F 0.236 -0.027 17.9 V 0.70 -0.25 c 691 0.27 Yes Yes
2001WR1 O C 2005-04-10.18348 1.000E-05 10:52:28.260 1.500E-01 0.500 F 0.414 -0.166 +04° 54' 30.20" 1.000E-01 0.500 F 0.236 0.048 17.9 V 0.70 -0.25 c 691 0.35 Yes Yes
2001WR1 O C 2005-04-10.19967 1.000E-05 10:52:26.430 1.500E-01 0.500 F 0.414 -0.311 +04° 54' 00.60" 1.000E-01 0.500 F 0.236 -0.223 18.1 V 0.70 -0.05 c 691 0.77 Yes Yes
2005GD60 O C 2005-04-10.37536 1.000E-05 13:42:47.200 1.500E-01 0.500 F 0.498 -0.172 -08° 02' 18.70" 1.000E-01 0.500 F 0.245 -0.093 19.4 V 0.70 0.38 c 691 0.39 Yes Yes
2005GD60 O C 2005-04-10.38036 1.000E-05 13:42:47.000 1.500E-01 0.500 F 0.498 -0.161 -08° 02' 02.10" 1.000E-01 0.500 F 0.245 0.019 19.4 V 0.70 0.38 c 691 0.33 Yes Yes
2005GD60 O C 2005-04-10.38621 1.000E-05 13:42:46.760 1.500E-01 0.500 F 0.498 -0.250 -08° 01' 42.70" 1.000E-01 0.500 F 0.245 0.116 19.4 V 0.70 0.38 c 691 0.56 Yes Yes
2005GG81 O C t 2005-04-11.36486 1.000E-05 14:04:55.630 1.500E-01 0.500 F 0.510 -0.113 -13° 34' 25.40" 1.000E-01 0.500 F 0.370 -0.442 19.6 V 0.70 -0.35 c 691 1.04 Yes Yes
2005GG81 O C t 2005-04-11.36789 1.000E-05 14:04:57.700 1.500E-01 0.500 F 0.510 1.957 -13° 34' 53.50" 1.000E-01 0.500 F 0.370 -2.150 19.7 V 0.70 -0.25 c 691 5.28 No Yes
2005GG81 O C t 2005-04-11.37085 1.000E-05 14:04:59.480 1.500E-01 0.500 F 0.510 0.439 -13° 35' 18.40" 1.000E-01 0.500 F 0.370 -1.278 19.9 V 0.70 -0.05 c 691 3.05 Yes Yes
2005GE59 O C H 2005-04-11.37540 1.000E-05 14:27:27.690 1.500E-01 0.500 F 0.413 0.147 -06° 40' 01.00" 1.000E-01 0.500 F 0.314 -0.108 21.0 V 0.70 0.06 c 691 0.37 Yes Yes
2005GE59 O C H 2005-04-11.39104 1.000E-05 14:27:26.410 1.500E-01 0.500 F 0.413 0.356 -06° 39' 48.60" 1.000E-01 0.500 F 0.314 -0.531 20.9 V 0.70 -0.04 c 691 1.28 Yes Yes
2005GD60 O C 2005-04-11.39624 1.000E-05 13:42:19.870 1.500E-01 0.500 F 0.525 -0.108 -07° 04' 27.70" 1.000E-01 0.500 F 0.303 -0.050 19.2 V 0.70 0.30 c 691 0.24 Yes Yes
2005GD60 O C 2005-04-11.40090 1.000E-05 13:42:19.670 1.500E-01 0.500 F 0.525 -0.150 -07° 04' 11.20" 1.000E-01 0.500 F 0.303 0.008 19.3 V 0.70 0.40 c 691 0.30 Yes Yes
2005GD60 O C 2005-04-11.40604 1.000E-05 13:42:19.460 1.500E-01 0.500 F 0.525 -0.055 -07° 03' 53.00" 1.000E-01 0.500 F 0.303 0.064 19.2 V 0.70 0.30 c 691 0.17 Yes Yes
2001FM129 O C 2005-04-12.25685 1.000E-05 13:58:14.090 1.500E-01 0.500 F 0.698 -0.146 -15° 49' 10.80" 1.000E-01 0.500 F 0.259 0.012 18.6 V 0.70 0.22 c 691 0.29 Yes Yes
2001FM129 O C 2005-04-12.27415 1.000E-05 13:58:10.940 1.500E-01 0.500 F 0.698 -0.281 -15° 48' 53.70" 1.000E-01 0.500 F 0.259 0.054 18.6 V 0.70 0.22 c 691 0.57 Yes Yes
2001FM129 O C 2005-04-12.29153 1.000E-05 13:58:07.770 1.500E-01 0.500 F 0.698 -0.450 -15° 48' 36.50" 1.000E-01 0.500 F 0.259 0.079 19.3 V 0.70 0.92 c 691 0.91 Yes Yes
1999HD1 O C 2005-04-13.32279 1.000E-05 14:08:55.880 1.500E-01 0.500 F 0.540 -0.245 -15° 54' 07.60" 1.000E-01 0.500 F 0.304 0.329 21.4 V 0.70 1.21 c 691 0.83 Yes Yes
1999HD1 O C 2005-04-13.33997 1.000E-05 14:08:53.590 1.500E-01 0.500 F 0.540 -0.676 -15° 53' 30.30" 1.000E-01 0.500 F 0.304 0.325 21.2 V 0.70 1.01 c 691 1.52 Yes Yes
1999HD1 O C 2005-04-13.35730 1.000E-05 14:08:51.380 1.500E-01 0.500 F 0.540 0.347 -15° 52' 53.30" 1.000E-01 0.500 F 0.304 -0.377 20.8 V 0.70 0.61 c 691 1.04 Yes Yes
2005GE59 O C 2005-04-14.33168 1.000E-05 14:23:28.890 1.500E-01 0.500 F 0.375 -0.134 -06° 00' 01.10" 1.000E-01 0.500 F 0.301 -0.050 20.9 V 0.70 0.00 c 691 0.29 Yes Yes
2005GE59 O C 2005-04-14.35192 1.000E-05 14:23:27.200 1.500E-01 0.500 F 0.375 -0.134 -05° 59' 44.70" 1.000E-01 0.500 F 0.301 0.097 20.7 V 0.70 -0.20 c 691 0.33 Yes Yes
2005GE59 O C 2005-04-14.37215 1.000E-05 14:23:25.490 1.500E-01 0.500 F 0.375 -0.446 -05° 59' 28.70" 1.000E-01 0.500 F 0.301 -0.156 21.3 V 0.70 0.40 c 691 0.95 Yes Yes
2005GM162 O C 2005-04-15.28416 1.000E-05 13:53:05.600 1.500E-01 0.500 F 0.233 -0.154 -15° 04' 50.00" 1.000E-01 0.500 F 0.353 -0.099 21.1 V 0.70 0.22 c 691 0.37 Yes Yes
2005GM162 O C 2005-04-15.30314 1.000E-05 13:53:05.450 1.500E-01 0.500 F 0.233 -0.372 -15° 05' 01.40" 1.000E-01 0.500 F 0.353 -0.343 21.2 V 0.70 0.33 c 691 1.03 Yes Yes
2005GM162 O C 2005-04-15.32212 1.000E-05 13:53:05.360 1.500E-01 0.500 F 0.233 0.326 -15° 05' 12.50" 1.000E-01 0.500 F 0.353 -0.370 21.3 V 0.70 0.43 c 691 1.01 Yes Yes
2005GE59 O C 2005-04-15.35431 1.000E-05 14:22:05.860 1.500E-01 0.500 F 0.375 0.014 -05° 46' 23.40" 1.000E-01 0.500 F 0.301 -0.208 21.3 V 0.70 0.41 c 691 0.42 Yes Yes
2005GE59 O C 2005-04-15.36175 1.000E-05 14:22:05.240 1.500E-01 0.500 F 0.375 0.038 -05° 46' 17.60" 1.000E-01 0.500 F 0.301 -0.334 21.0 V 0.70 0.11 c 691 0.67 Yes Yes
2005GE59 O C 2005-04-15.36916 1.000E-05 14:22:04.610 1.500E-01 0.500 F 0.375 -0.127 -05° 46' 11.40" 1.000E-01 0.500 F 0.301 -0.037 21.1 V 0.70 0.21 c 691 0.27 Yes Yes
2002LY45 O C 2005-04-15.43835 1.000E-05 14:57:06.350 1.500E-01 0.500 F 0.497 -0.239 -08° 47' 14.30" 1.000E-01 0.500 F 0.273 0.592 21.5 V 0.70 0.79 c 691 1.28 Yes Yes
2002LY45 O C 2005-04-15.45684 1.000E-05 14:57:04.360 1.500E-01 0.500 F 0.497 0.070 -08° 47' 03.80" 1.000E-01 0.500 F 0.273 -0.336 21.1 V 0.70 0.39 c 691 0.69 Yes Yes
2002LY45 O C 2005-04-15.47524 1.000E-05 14:57:02.270 1.500E-01 0.500 F 0.497 -1.279 -08° 46' 52.20" 1.000E-01 0.500 F 0.273 -0.116 21.5 V 0.70 0.79 c 691 2.57 Yes Yes
2002RS28 O C 2005-04-16.20497 1.000E-05 13:55:09.670 1.500E-01 0.500 F 0.613 -0.042 -17° 31' 27.30" 1.000E-01 0.500 F 0.321 0.027 17.8 V 0.70 0.18 c 691 0.10 Yes Yes
2002RS28 O C 2005-04-16.22674 1.000E-05 13:55:07.790 1.500E-01 0.500 F 0.613 -0.225 -17° 30' 41.00" 1.000E-01 0.500 F 0.321 0.286 17.7 V 0.70 0.08 c 691 0.73 Yes Yes
2002RS28 O C 2005-04-16.24553 1.000E-05 13:55:06.180 1.500E-01 0.500 F 0.613 -0.131 -17° 30' 01.50" 1.000E-01 0.500 F 0.321 0.003 17.6 V 0.70 -0.01 c 691 0.26 Yes Yes
2005GM162 O C H 2005-04-16.25757 1.000E-05 13:53:08.620 1.500E-01 0.500 F 0.233 0.476 -15° 14' 21.30" 1.000E-01 0.500 F 0.353 -0.591 c 691 1.55 Yes No
2005JU1 O C 2005-04-16.26972 1.000E-05 14:14:16.280 1.500E-01 0.500 F 0.377 0.218 -09° 55' 10.70" 1.000E-01 0.500 F 0.310 -0.061 20.4 V 0.70 0.25 c 691 0.46 Yes Yes
2005GM162 O C H 2005-04-16.27330 1.000E-05 13:53:08.490 1.500E-01 0.500 F 0.233 0.240 -15° 14' 30.60" 1.000E-01 0.500 F 0.353 -0.347 c 691 0.86 Yes No
2005GM162 O C H 2005-04-16.29014 1.000E-05 13:53:08.370 1.500E-01 0.500 F 0.233 0.345 -15° 14' 40.10" 1.000E-01 0.500 F 0.353 0.309 c 691 0.94 Yes No
2005JU1 O C 2005-04-16.29955 1.000E-05 14:14:13.930 1.500E-01 0.500 F 0.377 -0.129 -09° 55' 21.70" 1.000E-01 0.500 F 0.310 -0.054 20.2 V 0.70 0.05 c 691 0.28 Yes Yes
2005JU1 O C 2005-04-16.31832 1.000E-05 14:14:12.470 1.500E-01 0.500 F 0.377 0.084 -09° 55' 28.60" 1.000E-01 0.500 F 0.310 -0.089 20.1 V 0.70 -0.04 c 691 0.25 Yes Yes
2005GE59 O C H 2005-04-17.24442 1.000E-05 14:19:32.840 1.500E-01 0.500 F 0.388 1.004 -05° 21' 33.30" 1.000E-01 0.500 F 0.352 -1.294 c 691 3.27 No No
2005GE59 O C H 2005-04-17.25755 1.000E-05 14:19:31.740 1.500E-01 0.500 F 0.388 0.863 -05° 21' 22.70" 1.000E-01 0.500 F 0.352 -0.928 c 691 2.54 Yes No
2005GM162 O C H 2005-04-17.26102 1.000E-05 13:53:11.030 1.500E-01 0.500 F 0.233 0.101 -15° 24' 23.80" 1.000E-01 0.500 F 0.353 -1.052 c 691 2.15 Yes No
2005GE59 O C H 2005-04-17.26565 1.000E-05 14:19:31.020 1.500E-01 0.500 F 0.388 0.166 -05° 21' 15.90" 1.000E-01 0.500 F 0.352 -0.442 c 691 0.95 Yes No
2005GM162 O C H 2005-04-17.27693 1.000E-05 13:53:10.940 1.500E-01 0.500 F 0.233 0.605 -15° 24' 33.30" 1.000E-01 0.500 F 0.353 -0.697 c 691 1.88 Yes No
2005GM162 O C H 2005-04-17.29212 1.000E-05 13:53:10.800 1.500E-01 0.500 F 0.233 0.365 -15° 24' 43.00" 1.000E-01 0.500 F 0.353 -1.045 c 691 2.25 Yes No
1999HD1 O C 2005-04-17.34517 1.000E-05 14:00:07.900 1.500E-01 0.500 F 0.531 0.106 -13° 19' 21.70" 1.000E-01 0.500 F 0.410 -0.269 20.2 V 0.70 0.37 c 691 0.59 Yes Yes
1999HD1 O C 2005-04-17.36400 1.000E-05 14:00:05.180 1.500E-01 0.500 F 0.531 0.058 -13° 18' 35.20" 1.000E-01 0.500 F 0.410 0.169 19.8 V 0.70 -0.03 c 691 0.36 Yes Yes
1999HD1 O C 2005-04-17.38245 1.000E-05 14:00:02.520 1.500E-01 0.500 F 0.531 0.043 -13° 17' 50.00" 1.000E-01 0.500 F 0.410 0.165 19.8 V 0.70 -0.03 c 691 0.34 Yes Yes
1998MQ O C 2005-04-17.41359 1.000E-05 15:23:19.130 1.500E-01 0.500 F 0.016 -0.033 -18° 24' 20.90" 1.000E-01 0.500 F 0.026 0.105 19.5 V 0.70 0.10 c 691 0.22 Yes Yes
1998MQ O C 2005-04-17.43227 1.000E-05 15:23:18.040 1.500E-01 0.500 F 0.016 -0.015 -18° 24' 03.50" 1.000E-01 0.500 F 0.026 0.068 19.5 V 0.70 0.10 c 691 0.14 Yes Yes
1998MQ O C 2005-04-17.45085 1.000E-05 15:23:16.950 1.500E-01 0.500 F 0.016 -0.097 -18° 23' 46.10" 1.000E-01 0.500 F 0.026 0.092 19.5 V 0.70 0.10 c 691 0.27 Yes Yes
2005GE59 O C H 2005-04-18.31003 1.000E-05 14:18:06.400 1.500E-01 0.500 F 0.366 -0.044 -05° 07' 44.30" 1.000E-01 0.500 F 0.302 0.449 20.8 V 0.70 -0.07 c 691 0.91 Yes Yes
2005GE59 O C H 2005-04-18.37360 1.000E-05 14:18:01.120 1.500E-01 0.500 F 0.366 0.015 -05° 06' 55.10" 1.000E-01 0.500 F 0.302 0.605 21.0 V 0.70 0.13 c 691 1.21 Yes Yes
Albert O C 2005-04-18.40779 1.000E-05 15:10:24.690 1.500E-01 0.500 F 0.281 -0.028 -06° 20' 13.10" 1.000E-01 0.500 F 0.391 -0.013 19.6 V 0.70 0.55 c 691 0.06 Yes Yes
Albert O C 2005-04-18.42555 1.000E-05 15:10:23.800 1.500E-01 0.500 F 0.281 -0.297 -06° 20' 02.60" 1.000E-01 0.500 F 0.391 0.049 19.8 V 0.70 0.75 c 691 0.60 Yes Yes
Albert O C 2005-04-18.44359 1.000E-05 15:10:22.920 1.500E-01 0.500 F 0.281 -0.227 -06° 19' 51.90" 1.000E-01 0.500 F 0.391 0.138 19.5 V 0.70 0.45 c 691 0.53 Yes Yes
1998HL49 O C H 2005-04-30.38039 1.000E-05 16:19:38.670 1.500E-01 0.500 F 0.168 -0.074 -12° 25' 13.30" 1.000E-01 0.500 F 0.242 0.422 20.8 V 0.70 0.21 c 691 0.86 Yes Yes
1998HL49 O C H 2005-04-30.39828 1.000E-05 16:19:37.040 1.500E-01 0.500 F 0.168 -0.208 -12° 25' 05.20" 1.000E-01 0.500 F 0.242 -0.718 20.5 V 0.70 -0.09 c 691 1.50 Yes Yes
1998HL49 O C H 2005-04-30.41609 1.000E-05 16:19:35.480 1.500E-01 0.500 F 0.168 0.576 -12° 24' 55.70" 1.000E-01 0.500 F 0.242 -0.432 20.8 V 0.70 0.21 c 691 1.44 Yes Yes
2001HG31 O C 2005-05-03.15641 1.000E-05 12:33:02.140 1.500E-01 0.500 F 0.536 -0.264 -00° 52' 02.90" 1.000E-01 0.500 F 0.299 -0.111 18.7 V 0.70 0.19 c 691 0.57 Yes Yes
2001HG31 O C 2005-05-03.17206 1.000E-05 12:33:01.750 1.500E-01 0.500 F 0.536 -0.101 -00° 52' 05.40" 1.000E-01 0.500 F 0.299 -0.081 18.7 V 0.70 0.18 c 691 0.26 Yes Yes
2001HG31 O C 2005-05-03.18757 1.000E-05 12:33:01.350 1.500E-01 0.500 F 0.536 -0.131 -00° 52' 07.80" 1.000E-01 0.500 F 0.299 0.027 18.5 V 0.70 -0.02 c 691 0.27 Yes Yes
1998MQ O C 2005-05-03.25829 1.000E-05 15:04:54.930 1.500E-01 0.500 F 0.364 0.044 -13° 39' 09.20" 1.000E-01 0.500 F 0.245 -0.107 18.9 V 0.70 0.21 c 691 0.23 Yes Yes
2002GF1 O C 2005-05-03.25829 1.000E-05 15:00:18.340 1.500E-01 0.500 F 0.567 -0.126 -12° 58' 17.10" 1.000E-01 0.500 F 0.226 -0.138 18.5 V 0.70 0.47 c 691 0.38 Yes Yes
1998MQ O C 2005-05-03.27572 1.000E-05 15:04:53.470 1.500E-01 0.500 F 0.364 -0.013 -13° 38' 48.40" 1.000E-01 0.500 F 0.245 -0.279 18.9 V 0.70 0.21 c 691 0.56 Yes Yes
2002GF1 O C 2005-05-03.27572 1.000E-05 15:00:19.290 1.500E-01 0.500 F 0.567 -0.121 -12° 58' 31.00" 1.000E-01 0.500 F 0.226 -0.076 18.6 V 0.70 0.57 c 691 0.29 Yes Yes
1998MQ O C 2005-05-03.29301 1.000E-05 15:04:52.020 1.500E-01 0.500 F 0.364 -0.066 -13° 38' 27.40" 1.000E-01 0.500 F 0.245 -0.105 18.9 V 0.70 0.21 c 691 0.25 Yes Yes

[1-200] [201-400] [401-600] [601-800] [801-1000] [1001-1200] [1201-1400] [1401-1600] [1601-1800] [1801-2000] [2001-2200] [2201-2400] [2401-2600] [2601-2800] [2801-3000] [3001-3200] [3201-3400] [3401-3600] [3601-3800] [3801-4000] [4001-4200] [4201-4400] [4401-4600] [4601-4800] [4801-5000] [5001-5200] [5201-5400] [5401-5600] [5601-5800] [5801-6000] [6001-6200] [6201-6400] [6401-6600] [6601-6800] [6801-7000] [7001-7200] [7201-7400] [7401-7600] [7601-7800] [7801-8000] [8001-8200] [8201-8400] [8401-8600] [8601-8800] [8801-9000] [9001-9200] [9201-9400] [9401-9600] [9601-9800] [9801-10000] [10001-10200] [10201-10400] [10401-10600] [10601-10800] [10801-11000] [11001-11200] [11201-11400] [11401-11600] [11601-11800] [11801-12000] [12001-12200] [12201-12400] [12401-12600] [12601-12800] [12801-13000] [13001-13200] [13201-13400] [13401-13600] [13601-13800] [13801-14000] [14001-14200] [14201-14400] [14401-14600] [14601-14800] [14801-15000] [15001-15200] [15201-15400] [15401-15600] [15601-15800] [15801-16000] [16001-16200] [16201-16400] [16401-16600] [16601-16800] [16801-17000] [17001-17200] [17201-17400] [17401-17600] [17601-17800] [17801-18000] [18001-18200] [18201-18400] [18401-18600] [18601-18800] [18801-19000] [19001-19200] [19201-19400] [19401-19600] [19601-19800] [19801-20000] [20001-20200] [20201-20400] [20401-20600] [20601-20800] [20801-21000] [21001-21200] [21201-21400] [21401-21600] [21601-21800] [21801-22000] [22001-22200] [22201-22400] [22401-22600] [22601-22800] [22801-23000] [23001-23200] [23201-23400] [23401-23600] [23601-23800] [23801-24000] [24001-24200] [24201-24400] [24401-24600] [24601-24800] [24801-25000] [25001-25200] [25201-25400] [25401-25600] [25601-25800] [25801-26000] [26001-26200] [26201-26400] [26401-26600] [26601-26800] [26801-27000] [27001-27200] [27201-27400] [27401-27600] [27601-27800] [27801-28000] [28001-28200] [28201-28400] [28401-28600] [28601-28800] [28801-29000] [29001-29200] [29201-29400] [29401-29600] [29601-29800] [29801-30000] [30001-30200] [30201-30400] [30401-30600] [30601-30800] [30801-31000] [31001-31200] [31201-31400] [31401-31600] [31601-31800] [31801-32000] [32001-32200] [32201-32400] [32401-32600] [32601-32800] [32801-33000] [33001-33200] [33201-33400] [33401-33600] [33601-33800] [33801-34000] [34001-34200] [34201-34400] [34401-34600] [34601-34800] [34801-35000] [35001-35200] [35201-35400] [35401-35600] [35601-35800] [35801-36000] [36001-36200] [36201-36400] [36401-36600] [36601-36800] [36801-37000] [37001-37200] [37201-37400] [37401-37600] [37601-37800] [37801-38000] [38001-38200] [38201-38400] [38401-38600] [38601-38800] [38801-39000] [39001-39200] [39201-39400] [39401-39600] [39601-39800] [39801-40000] [40001-40200] [40201-40400] [40401-40600] [40601-40800] [40801-41000] [41001-41200] [41201-41400] [41401-41600] [41601-41800] [41801-42000] [42001-42200] [42201-42400] [42401-42600] [42601-42800] [42801-43000] [43001-43200] [43201-43400] [43401-43600] [43601-43800] [43801-44000] [44001-44200] [44201-44400] [44401-44600] [44601-44800] [44801-45000] [45001-45200] [45201-45400] [45401-45600] [45601-45800] [45801-46000] [46001-46200] [46201-46400] [46401-46600] [46601-46800] [46801-47000] [47001-47200] [47201-47400] [47401-47600] [47601-47800] [47801-48000] [48001-48200] [48201-48400] [48401-48600] [48601-48800] [48801-49000] [49001-49200] [49201-49400] [49401-49600] [49601-49800] [49801-50000] [50001-50200] [50201-50388]